createdAt,value
2022-08-05T00:01:48.469Z,98233.63
2022-08-05T00:04:55.377Z,98227.22
2022-08-05T00:08:00.410Z,98228.44
2022-08-05T00:11:05.325Z,98222.75
2022-08-05T00:14:21.947Z,98217.97
2022-08-05T00:17:29.877Z,98219.69
2022-08-05T00:20:31.416Z,98239.28
2022-08-05T00:23:46.365Z,98245.66
2022-08-05T00:26:50.881Z,98243.91
2022-08-05T00:29:53.719Z,98244.59
2022-08-05T00:32:57.839Z,98243.06
2022-08-05T00:36:15.234Z,98229.78
2022-08-05T00:39:20.836Z,98230.41
2022-08-05T00:42:33.848Z,98224.50
2022-08-05T00:45:42.762Z,98217.88
2022-08-05T00:48:51.426Z,98217.03
2022-08-05T00:51:53.069Z,98219.59
2022-08-05T00:54:54.648Z,98222.19
2022-08-05T00:57:58.935Z,98231.06
2022-08-05T01:01:00.863Z,98219.84
2022-08-05T01:04:03.155Z,98222.66
2022-08-05T01:07:15.119Z,98225.75
2022-08-05T01:10:21.218Z,98230.16
2022-08-05T01:13:58.765Z,98226.78
2022-08-05T01:17:17.637Z,98228.59
2022-08-05T01:20:48.787Z,98229.22
2022-08-05T01:24:23.490Z,98226.41
2022-08-05T01:27:55.476Z,98223.91
2022-08-05T01:31:03.007Z,98221.88
2022-08-05T01:34:15.891Z,98220.91
2022-08-05T01:37:25.113Z,98225.63
2022-08-05T01:40:29.447Z,98229.31
2022-08-05T01:43:31.020Z,98233.56
2022-08-05T01:46:42.868Z,98231.31
2022-08-05T01:50:01.585Z,98240.16
2022-08-05T01:53:06.971Z,98235.84
2022-08-05T01:56:09.392Z,98246.44
2022-08-05T01:59:13.106Z,98252.69
2022-08-05T02:02:15.822Z,98239.03
2022-08-05T02:05:17.961Z,98241.31
2022-08-05T02:08:29.677Z,98240.53
2022-08-05T02:11:52.489Z,98243.59
2022-08-05T02:15:03.010Z,98229.78
2022-08-05T02:18:32.235Z,98230.63
2022-08-05T02:21:42.928Z,98237.59
2022-08-05T02:24:48.196Z,98251.38
2022-08-05T02:27:58.213Z,98251.38
2022-08-05T02:31:22.395Z,98269.94
2022-08-05T02:34:24.149Z,98269.00
2022-08-05T02:37:32.050Z,98276.38
2022-08-05T02:40:33.607Z,98266.59
2022-08-05T02:43:35.203Z,98275.56
2022-08-05T02:46:59.816Z,98270.81
2022-08-05T02:50:03.101Z,98252.84
2022-08-05T02:53:04.592Z,98246.25
2022-08-05T02:56:06.653Z,98249.34
2022-08-05T02:59:08.423Z,98253.25
2022-08-05T03:02:10.028Z,98243.16
2022-08-05T03:05:12.625Z,98238.50
2022-08-05T03:08:14.814Z,98248.03
2022-08-05T03:11:53.699Z,98239.66
2022-08-05T03:14:45.737Z,98226.66
2022-08-05T03:17:47.719Z,98226.88
2022-08-05T03:20:55.449Z,98221.66
2022-08-05T03:23:56.940Z,98228.25
2022-08-05T03:26:59.414Z,98230.16
2022-08-05T03:30:08.692Z,98234.97
2022-08-05T03:33:10.636Z,98232.63
2022-08-05T03:36:12.347Z,98240.34
2022-08-05T03:39:26.802Z,98249.19
2022-08-05T03:42:32.919Z,98258.16
2022-08-05T03:45:55.153Z,98273.28
2022-08-05T03:48:59.894Z,98296.88
2022-08-05T03:52:48.289Z,98302.06
2022-08-05T03:56:01.330Z,98315.47
2022-08-05T03:58:50.693Z,98298.06
2022-08-05T04:01:52.836Z,98311.38
2022-08-05T04:05:00.398Z,98318.88
2022-08-05T04:08:14.614Z,98336.16
2022-08-05T04:11:50.651Z,98355.69
2022-08-05T04:14:49.410Z,98376.19
2022-08-05T04:17:56.160Z,98397.94
2022-08-05T04:20:59.113Z,98415.84
2022-08-05T04:24:06.393Z,98429.19
2022-08-05T04:27:10.441Z,98438.00
2022-08-05T04:30:12.039Z,98457.22
2022-08-05T04:33:13.659Z,98468.53
2022-08-05T04:36:38.550Z,98512.66
2022-08-05T04:39:37.246Z,98517.31
2022-08-05T04:42:38.753Z,98530.38
2022-08-05T04:45:48.607Z,98526.34
2022-08-05T04:48:51.582Z,98527.06
2022-08-05T04:52:00.251Z,98527.94
2022-08-05T04:55:02.379Z,98526.13
2022-08-05T04:58:20.161Z,98517.47
2022-08-05T05:02:06.263Z,98517.56
2022-08-05T05:04:49.725Z,98531.88
2022-08-05T05:07:56.239Z,98543.00
2022-08-05T05:11:02.327Z,98528.56
2022-08-05T05:14:03.861Z,98526.75
2022-08-05T05:17:07.502Z,98528.81
2022-08-05T05:20:12.292Z,98533.88
2022-08-05T05:23:19.722Z,98539.28
2022-08-05T05:26:28.582Z,98537.56
2022-08-05T05:29:40.963Z,98532.84
2022-08-05T05:32:56.125Z,98537.16
2022-08-05T05:35:57.678Z,98537.00
2022-08-05T05:38:59.342Z,98540.41
2022-08-05T05:42:01.621Z,98535.69
2022-08-05T05:45:03.230Z,98538.63
2022-08-05T05:48:08.281Z,98537.31
2022-08-05T05:51:15.189Z,98523.63
2022-08-05T05:54:17.467Z,98523.91
2022-08-05T05:57:21.237Z,98532.22
2022-08-05T06:00:27.727Z,98516.06
2022-08-05T06:03:54.068Z,98514.22
2022-08-05T06:06:54.816Z,98513.34
2022-08-05T06:10:01.480Z,98503.06
2022-08-05T06:13:07.739Z,98501.59
2022-08-05T06:16:29.970Z,98496.31
2022-08-05T06:19:34.647Z,98505.69
2022-08-05T06:22:37.081Z,98509.22
2022-08-05T06:26:00.115Z,98521.44
2022-08-05T06:29:06.996Z,98527.84
2022-08-05T06:32:29.252Z,98544.03
2022-08-05T06:36:08.169Z,98542.59
2022-08-05T06:38:54.608Z,98538.78
2022-08-05T06:41:58.602Z,98537.28
2022-08-05T06:45:00.262Z,98551.88
2022-08-05T06:48:36.112Z,98561.31
2022-08-05T06:51:29.960Z,98557.84
2022-08-05T06:54:32.105Z,98542.00
2022-08-05T06:57:57.131Z,98540.34
2022-08-05T07:00:55.214Z,98548.25
2022-08-05T07:03:56.748Z,98564.31
2022-08-05T07:06:58.405Z,98559.81
2022-08-05T07:10:03.351Z,98564.88
2022-08-05T07:13:57.161Z,98560.28
2022-08-05T07:18:00.691Z,98558.97
2022-08-05T07:23:34.535Z,98567.75
2022-08-05T07:26:42.025Z,98581.38
2022-08-05T07:30:22.902Z,98584.34
2022-08-05T07:33:10.026Z,98562.97
2022-08-05T07:36:20.227Z,98561.41
2022-08-05T07:40:03.691Z,98552.31
2022-08-05T07:42:44.281Z,98546.66
2022-08-05T07:45:57.214Z,98545.72
2022-08-05T07:49:04.980Z,98532.94
2022-08-05T07:52:07.187Z,98522.69
2022-08-05T07:55:44.334Z,98516.28
2022-08-05T07:58:57.363Z,98529.19
2022-08-05T08:01:57.531Z,98523.56
2022-08-05T08:04:59.606Z,98506.06
2022-08-05T08:08:02.040Z,98491.31
2022-08-05T08:11:03.519Z,98503.88
2022-08-05T08:14:10.333Z,98478.28
2022-08-05T08:17:19.859Z,98471.09
2022-08-05T08:20:43.279Z,98485.44
2022-08-05T08:24:01.846Z,98472.91
2022-08-05T08:27:07.078Z,98459.31
2022-08-05T08:30:30.074Z,98447.00
2022-08-05T08:33:36.124Z,98436.81
2022-08-05T08:36:47.611Z,98426.78
2022-08-05T08:39:56.517Z,98414.00
2022-08-05T08:42:58.368Z,98421.81
2022-08-05T08:46:19.712Z,98409.16
2022-08-05T08:50:14.664Z,98413.81
2022-08-05T08:52:43.460Z,98410.34
2022-08-05T08:56:02.813Z,98399.56
2022-08-05T08:59:14.709Z,98400.78
2022-08-05T09:02:20.945Z,98401.25
2022-08-05T09:05:38.767Z,98390.25
2022-08-05T09:08:47.327Z,98406.47
2022-08-05T09:11:51.371Z,98408.00
2022-08-05T09:15:03.943Z,98413.00
2022-08-05T09:18:08.998Z,98398.03
2022-08-05T09:21:11.427Z,98391.38
2022-08-05T09:24:13.674Z,98387.56
2022-08-05T09:28:04.345Z,98387.19
2022-08-05T09:30:53.255Z,98390.84
2022-08-05T09:33:58.409Z,98384.56
2022-08-05T09:37:00.130Z,98386.16
2022-08-05T09:40:01.837Z,98385.94
2022-08-05T09:43:08.477Z,98378.31
2022-08-05T09:46:27.804Z,98369.78
2022-08-05T09:50:00.780Z,98364.47
2022-08-05T09:52:52.791Z,98362.44
2022-08-05T09:56:04.991Z,98376.41
2022-08-05T09:59:17.281Z,98397.56
2022-08-05T10:02:31.441Z,98402.88
2022-08-05T10:05:33.511Z,98396.09
2022-08-05T10:08:38.151Z,98389.03
2022-08-05T10:11:40.333Z,98389.06
2022-08-05T10:14:43.334Z,98390.69
2022-08-05T10:18:12.475Z,98374.13
2022-08-05T10:21:16.344Z,98377.03
2022-08-05T10:24:18.463Z,98376.75
2022-08-05T10:27:20.232Z,98371.88
2022-08-05T10:32:46.895Z,98368.50
2022-08-05T10:33:52.263Z,98368.78
2022-08-05T10:36:55.906Z,98379.16
2022-08-05T10:40:16.938Z,98382.50
2022-08-05T10:43:31.046Z,98380.63
2022-08-05T10:46:55.053Z,98376.06
2022-08-05T10:50:20.526Z,98381.34
2022-08-05T10:53:56.193Z,98372.47
2022-08-05T10:57:00.077Z,98372.13
2022-08-05T11:00:19.751Z,98393.44
2022-08-05T11:03:23.193Z,98377.72
2022-08-05T11:06:30.805Z,98393.38
2022-08-05T11:09:46.950Z,98390.91
2022-08-05T11:12:50.728Z,98389.06
2022-08-05T11:16:21.582Z,98388.31
2022-08-05T11:20:17.127Z,98387.47
2022-08-05T11:22:54.128Z,98395.78
2022-08-05T11:26:09.238Z,98399.19
2022-08-05T11:29:34.626Z,98399.47
2022-08-05T11:32:36.114Z,98401.84
2022-08-05T11:36:04.461Z,98390.34
2022-08-05T11:39:10.307Z,98398.94
2022-08-05T11:42:11.994Z,98396.34
2022-08-05T11:45:26.956Z,98392.94
2022-08-05T11:48:41.933Z,98388.13
2022-08-05T11:51:49.770Z,98379.03
2022-08-05T11:54:54.791Z,98379.19
2022-08-05T11:58:08.290Z,98395.78
2022-08-05T12:01:19.014Z,98374.59
2022-08-05T12:04:21.046Z,98384.44
2022-08-05T12:08:03.491Z,98375.16
2022-08-05T12:10:46.574Z,98382.56
2022-08-05T12:13:58.597Z,98379.16
2022-08-05T12:17:01.542Z,98395.34
2022-08-05T12:20:26.248Z,98399.03
2022-08-05T12:23:25.193Z,98388.88
2022-08-05T12:26:39.424Z,98382.84
2022-08-05T12:29:45.457Z,98385.09
2022-08-05T12:32:58.716Z,98380.28
2022-08-05T12:36:09.582Z,98394.06
2022-08-05T12:39:11.339Z,98386.34
2022-08-05T12:42:14.484Z,98384.66
2022-08-05T12:45:18.475Z,98383.75
2022-08-05T12:48:27.121Z,98387.78
2022-08-05T12:52:10.156Z,98390.22
2022-08-05T12:55:22.286Z,98389.84
2022-08-05T12:58:38.941Z,98377.94
2022-08-05T13:02:01.452Z,98383.44
2022-08-05T13:05:07.696Z,98379.63
2022-08-05T13:08:09.238Z,98383.19
2022-08-05T13:11:17.320Z,98390.66
2022-08-05T13:14:40.312Z,98381.91
2022-08-05T13:17:56.019Z,98387.66
2022-08-05T13:21:00.901Z,98387.34
2022-08-05T13:24:02.434Z,98382.59
2022-08-05T13:27:05.984Z,98389.38
2022-08-05T13:30:34.893Z,98377.94
2022-08-05T13:34:22.397Z,98384.78
2022-08-05T13:37:00.184Z,98372.88
2022-08-05T13:40:16.107Z,98387.31
2022-08-05T13:43:22.037Z,98383.75
2022-08-05T13:46:50.678Z,98379.69
2022-08-05T13:49:46.589Z,98380.47
2022-08-05T13:52:50.235Z,98392.53
2022-08-05T13:56:00.163Z,98393.63
2022-08-05T13:59:05.979Z,98416.22
2022-08-05T14:02:20.867Z,98400.78
2022-08-05T14:05:29.373Z,98400.50
2022-08-05T14:08:49.885Z,98425.56
2022-08-05T14:12:04.199Z,98415.50
2022-08-05T14:16:06.854Z,98425.28
2022-08-05T14:18:34.392Z,98428.34
2022-08-05T14:22:09.178Z,98434.78
2022-08-05T14:25:01.645Z,98435.69
2022-08-05T14:28:03.318Z,98435.44
2022-08-05T14:31:05.093Z,98447.16
2022-08-05T14:34:18.814Z,98444.94
2022-08-05T14:37:48.128Z,98441.38
2022-08-05T14:40:47.089Z,98464.31
2022-08-05T14:44:00.122Z,98463.19
2022-08-05T14:47:07.196Z,98458.22
2022-08-05T14:50:17.783Z,98452.84
2022-08-05T14:53:20.139Z,98463.25
2022-08-05T14:56:23.408Z,98468.75
2022-08-05T14:59:29.405Z,98477.88
2022-08-05T15:02:36.809Z,98477.44
2022-08-05T15:06:08.097Z,98487.56
2022-08-05T15:09:03.846Z,98494.06
2022-08-05T15:12:06.035Z,98488.25
2022-08-05T15:15:15.426Z,98490.84
2022-08-05T15:18:17.466Z,98490.97
2022-08-05T15:21:20.968Z,98491.41
2022-08-05T15:24:22.701Z,98490.59
2022-08-05T15:27:25.482Z,98487.72
2022-08-05T15:30:28.552Z,98501.13
2022-08-05T15:34:04.355Z,98499.78
2022-08-05T15:36:51.359Z,98500.91
2022-08-05T15:41:02.072Z,98494.38
2022-08-05T15:43:20.518Z,98509.66
2022-08-05T15:46:24.212Z,98504.78
2022-08-05T15:49:48.105Z,98509.22
2022-08-05T15:52:53.714Z,98516.88
2022-08-05T15:56:02.116Z,98517.91
2022-08-05T15:59:05.918Z,98529.59
2022-08-05T16:02:09.670Z,98529.94
2022-08-05T16:05:15.845Z,98529.16
2022-08-05T16:08:17.337Z,98530.03
2022-08-05T16:11:40.095Z,98533.75
2022-08-05T16:14:42.332Z,98536.88
2022-08-05T16:17:46.091Z,98534.53
2022-08-05T16:21:01.260Z,98540.09
2022-08-05T16:24:06.421Z,98546.63
2022-08-05T16:27:15.987Z,98544.28
2022-08-05T16:30:25.667Z,98550.47
2022-08-05T16:33:41.807Z,98557.78
2022-08-05T16:36:43.473Z,98565.31
2022-08-05T16:40:06.309Z,98567.38
2022-08-05T16:43:06.806Z,98553.13
2022-08-05T16:46:23.988Z,98557.09
2022-08-05T16:49:26.512Z,98569.72
2022-08-05T16:52:32.729Z,98562.56
2022-08-05T16:55:46.854Z,98563.81
2022-08-05T16:58:48.818Z,98562.63
2022-08-05T17:01:52.983Z,98555.66
2022-08-05T17:04:55.980Z,98555.03
2022-08-05T17:07:57.469Z,98544.78
2022-08-05T17:10:58.944Z,98543.16
2022-08-05T17:14:06.052Z,98545.66
2022-08-05T17:17:14.393Z,98551.78
2022-08-05T17:20:16.869Z,98551.81
2022-08-05T17:24:02.953Z,98556.97
2022-08-05T17:26:40.908Z,98560.69
2022-08-05T17:29:42.520Z,98566.28
2022-08-05T17:32:43.859Z,98572.19
2022-08-05T17:36:07.486Z,98574.53
2022-08-05T17:39:24.543Z,98575.97
2022-08-05T17:42:32.342Z,98576.09
2022-08-05T17:45:38.465Z,98564.66
2022-08-05T17:48:40.439Z,98576.28
2022-08-05T17:51:46.357Z,98578.97
2022-08-05T17:54:51.599Z,98581.00
2022-08-05T17:57:53.096Z,98589.09
2022-08-05T18:00:54.581Z,98587.38
2022-08-05T18:04:04.389Z,98575.91
2022-08-05T18:07:07.617Z,98588.13
2022-08-05T18:10:21.072Z,98589.50
2022-08-05T18:13:23.025Z,98593.91
2022-08-05T18:16:27.352Z,98595.16
2022-08-05T18:19:28.938Z,98597.91
2022-08-05T18:22:36.327Z,98600.81
2022-08-05T18:25:57.804Z,98601.06
2022-08-05T18:29:01.162Z,98610.31
2022-08-05T18:32:03.006Z,98617.47
2022-08-05T18:35:05.178Z,98617.56
2022-08-05T18:38:07.506Z,98622.16
2022-08-05T18:41:55.881Z,98634.75
2022-08-05T18:44:35.143Z,98636.56
2022-08-05T18:47:37.979Z,98647.34
2022-08-05T18:52:03.179Z,98652.91
2022-08-05T18:54:19.548Z,98663.38
2022-08-05T18:57:24.007Z,98665.13
2022-08-05T19:00:29.400Z,98672.94
2022-08-05T19:03:53.036Z,98680.56
2022-08-05T19:06:53.521Z,98681.69
2022-08-05T19:09:55.668Z,98690.94
2022-08-05T19:12:57.280Z,98687.03
2022-08-05T19:16:03.847Z,98699.78
2022-08-05T19:19:05.512Z,98694.97
2022-08-05T19:22:06.896Z,98702.41
2022-08-05T19:25:10.159Z,98708.25
2022-08-05T19:28:23.300Z,98717.84
2022-08-05T19:31:26.196Z,98726.31
2022-08-05T19:34:35.175Z,98729.47
2022-08-05T19:38:04.264Z,98744.19
2022-08-05T19:40:58.059Z,98760.72
2022-08-05T19:44:13.718Z,98770.47
2022-08-05T19:47:16.407Z,98762.03
2022-08-05T19:50:19.913Z,98772.75
2022-08-05T19:54:05.304Z,98773.41
2022-08-05T19:56:42.856Z,98772.16
2022-08-05T20:00:00.938Z,98783.75
2022-08-05T20:03:08.481Z,98789.16
2022-08-05T20:06:15.430Z,98796.59
2022-08-05T20:09:17.289Z,98797.94
2022-08-05T20:12:18.792Z,98803.56
2022-08-05T20:15:48.406Z,98802.69
2022-08-05T20:18:42.497Z,98819.91
2022-08-05T20:21:46.517Z,98820.78
2022-08-05T20:24:48.037Z,98812.88
2022-08-05T20:27:50.443Z,98814.59
2022-08-05T20:30:51.939Z,98822.44
2022-08-05T20:33:53.442Z,98826.72
2022-08-05T20:36:55.431Z,98829.38
2022-08-05T20:39:58.353Z,98833.72
2022-08-05T20:43:00.264Z,98828.00
2022-08-05T20:46:01.862Z,98826.44
2022-08-05T20:49:03.752Z,98833.06
2022-08-05T20:52:08.417Z,98835.00
2022-08-05T20:56:02.763Z,98837.81
2022-08-05T20:58:31.435Z,98845.03
2022-08-05T21:01:38.616Z,98847.56
2022-08-05T21:04:40.651Z,98851.66
2022-08-05T21:07:45.691Z,98862.19
2022-08-05T21:10:52.573Z,98865.94
2022-08-05T21:13:56.699Z,98866.16
2022-08-05T21:16:58.495Z,98873.72
2022-08-05T21:20:02.090Z,98858.97
2022-08-05T21:23:07.680Z,98861.56
2022-08-05T21:26:12.334Z,98868.88
2022-08-05T21:29:16.729Z,98882.00
2022-08-05T21:32:20.081Z,98881.06
2022-08-05T21:35:29.730Z,98886.53
2022-08-05T21:38:44.189Z,98891.47
2022-08-05T21:41:52.578Z,98901.25
2022-08-05T21:44:54.480Z,98897.44
2022-08-05T21:47:58.250Z,98907.25
2022-08-05T21:50:59.748Z,98916.25
2022-08-05T21:54:04.068Z,98919.44
2022-08-05T21:57:29.903Z,98920.16
2022-08-05T22:00:27.335Z,98920.38
2022-08-05T22:03:51.710Z,98932.19
2022-08-05T22:06:50.375Z,98937.63
2022-08-05T22:09:52.113Z,98937.75
2022-08-05T22:12:58.821Z,98937.97
2022-08-05T22:16:11.444Z,98947.00
2022-08-05T22:20:00.357Z,98948.78
2022-08-05T22:23:02.534Z,98944.22
2022-08-05T22:26:37.016Z,98954.22
2022-08-05T22:29:38.560Z,98966.09
2022-08-05T22:32:42.601Z,98968.72
2022-08-05T22:35:49.160Z,98974.13
2022-08-05T22:38:50.994Z,98973.94
2022-08-05T22:42:10.198Z,98979.81
2022-08-05T22:45:13.964Z,98989.97
2022-08-05T22:48:15.623Z,98996.44
2022-08-05T22:52:02.581Z,98996.03
2022-08-05T22:54:48.775Z,98997.44
2022-08-05T22:57:51.016Z,99001.00
2022-08-05T23:00:52.502Z,99003.16
2022-08-05T23:03:59.635Z,99000.53
2022-08-05T23:07:01.518Z,98999.16
2022-08-05T23:10:03.554Z,98998.41
2022-08-05T23:13:05.050Z,98997.09
2022-08-05T23:16:06.571Z,98986.47
2022-08-05T23:19:10.146Z,98995.09
2022-08-05T23:22:28.800Z,98990.53
2022-08-05T23:25:52.099Z,98999.16
2022-08-05T23:28:51.898Z,99006.28
2022-08-05T23:31:55.593Z,99003.81
2022-08-05T23:34:57.938Z,99006.72
2022-08-05T23:38:00.106Z,99009.44
2022-08-05T23:41:02.341Z,99005.91
2022-08-05T23:44:06.410Z,99000.50
2022-08-05T23:47:14.321Z,98992.03
2022-08-05T23:50:20.009Z,98992.13
2022-08-05T23:53:22.809Z,99000.22
2022-08-05T23:56:27.354Z,98988.09
